sensor_id;sensor_type;location;lat;lon;timestamp;temperature;humidity
18141;DHT22;9196;49.194;12.526;2023-05-24T00:01:53;15.20;99.90
18141;DHT22;9196;49.194;12.526;2023-05-24T00:04:21;15.20;99.90
18141;DHT22;9196;49.194;12.526;2023-05-24T00:06:49;15.20;99.90
18141;DHT22;9196;49.194;12.526;2023-05-24T00:09:17;15.20;99.90
18141;DHT22;9196;49.194;12.526;2023-05-24T00:11:44;15.20;99.90
18141;DHT22;9196;49.194;12.526;2023-05-24T00:14:11;15.20;99.90
18141;DHT22;9196;49.194;12.526;2023-05-24T00:16:38;15.20;99.90
18141;DHT22;9196;49.194;12.526;2023-05-24T00:19:04;15.20;99.90
18141;DHT22;9196;49.194;12.526;2023-05-24T00:21:31;15.20;99.90
18141;DHT22;9196;49.194;12.526;2023-05-24T00:24:01;15.10;99.90
18141;DHT22;9196;49.194;12.526;2023-05-24T00:26:29;15.10;99.90
18141;DHT22;9196;49.194;12.526;2023-05-24T00:28:55;15.10;99.90
18141;DHT22;9196;49.194;12.526;2023-05-24T00:31:22;15.20;99.90
18141;DHT22;9196;49.194;12.526;2023-05-24T00:33:49;15.20;99.90
18141;DHT22;9196;49.194;12.526;2023-05-24T00:36:16;15.20;99.90
18141;DHT22;9196;49.194;12.526;2023-05-24T00:38:42;15.20;99.90
18141;DHT22;9196;49.194;12.526;2023-05-24T00:41:09;15.30;99.90
18141;DHT22;9196;49.194;12.526;2023-05-24T00:43:37;15.30;99.90
18141;DHT22;9196;49.194;12.526;2023-05-24T00:46:15;15.30;99.90
18141;DHT22;9196;49.194;12.526;2023-05-24T00:48:42;15.20;99.90
18141;DHT22;9196;49.194;12.526;2023-05-24T00:51:11;15.10;99.90
18141;DHT22;9196;49.194;12.526;2023-05-24T00:53:39;15.10;99.90
18141;DHT22;9196;49.194;12.526;2023-05-24T00:56:07;15.00;99.90
18141;DHT22;9196;49.194;12.526;2023-05-24T00:58:34;15.00;99.90
18141;DHT22;9196;49.194;12.526;2023-05-24T01:01:02;15.00;99.90
18141;DHT22;9196;49.194;12.526;2023-05-24T01:03:30;15.00;99.90
18141;DHT22;9196;49.194;12.526;2023-05-24T01:05:59;15.00;99.90
18141;DHT22;9196;49.194;12.526;2023-05-24T01:08:42;15.00;99.90
18141;DHT22;9196;49.194;12.526;2023-05-24T01:11:20;15.00;99.90
18141;DHT22;9196;49.194;12.526;2023-05-24T01:13:57;15.00;99.90
18141;DHT22;9196;49.194;12.526;2023-05-24T01:16:29;14.80;99.90
18141;DHT22;9196;49.194;12.526;2023-05-24T01:19:03;14.80;99.90
18141;DHT22;9196;49.194;12.526;2023-05-24T01:21:38;14.80;99.90
18141;DHT22;9196;49.194;12.526;2023-05-24T01:24:17;14.70;99.90
18141;DHT22;9196;49.194;12.526;2023-05-24T01:27:03;14.60;99.90
18141;DHT22;9196;49.194;12.526;2023-05-24T01:29:31;14.50;99.90
18141;DHT22;9196;49.194;12.526;2023-05-24T01:31:59;14.50;99.90
18141;DHT22;9196;49.194;12.526;2023-05-24T01:34:26;14.30;99.90
18141;DHT22;9196;49.194;12.526;2023-05-24T01:36:53;14.20;99.90
18141;DHT22;9196;49.194;12.526;2023-05-24T01:39:21;14.30;99.90
18141;DHT22;9196;49.194;12.526;2023-05-24T01:44:37;14.30;99.90
18141;DHT22;9196;49.194;12.526;2023-05-24T01:47:17;14.20;99.90
18141;DHT22;9196;49.194;12.526;2023-05-24T01:49:49;14.10;99.90
18141;DHT22;9196;49.194;12.526;2023-05-24T01:52:19;14.10;99.90
18141;DHT22;9196;49.194;12.526;2023-05-24T01:54:51;14.00;99.90
18141;DHT22;9196;49.194;12.526;2023-05-24T01:57:18;13.90;99.90
18141;DHT22;9196;49.194;12.526;2023-05-24T01:59:49;13.80;99.90
18141;DHT22;9196;49.194;12.526;2023-05-24T02:02:16;13.70;99.90
18141;DHT22;9196;49.194;12.526;2023-05-24T02:04:43;13.70;99.90
18141;DHT22;9196;49.194;12.526;2023-05-24T02:07:10;13.60;99.90
18141;DHT22;9196;49.194;12.526;2023-05-24T02:09:37;13.50;99.90
18141;DHT22;9196;49.194;12.526;2023-05-24T02:12:05;13.50;99.90
18141;DHT22;9196;49.194;12.526;2023-05-24T02:14:32;13.30;99.90
18141;DHT22;9196;49.194;12.526;2023-05-24T02:17:03;13.40;99.90
18141;DHT22;9196;49.194;12.526;2023-05-24T02:19:31;13.30;99.90
18141;DHT22;9196;49.194;12.526;2023-05-24T02:21:59;13.40;99.90
18141;DHT22;9196;49.194;12.526;2023-05-24T02:24:25;13.40;99.90
18141;DHT22;9196;49.194;12.526;2023-05-24T02:26:52;13.30;99.90
18141;DHT22;9196;49.194;12.526;2023-05-24T02:29:20;13.40;99.90
18141;DHT22;9196;49.194;12.526;2023-05-24T02:31:47;13.30;99.90
18141;DHT22;9196;49.194;12.526;2023-05-24T02:34:17;13.30;99.90
18141;DHT22;9196;49.194;12.526;2023-05-24T02:36:44;13.40;99.90
18141;DHT22;9196;49.194;12.526;2023-05-24T02:39:11;13.30;99.90
18141;DHT22;9196;49.194;12.526;2023-05-24T02:41:38;13.30;99.90
18141;DHT22;9196;49.194;12.526;2023-05-24T02:44:05;13.30;99.90
18141;DHT22;9196;49.194;12.526;2023-05-24T02:46:32;13.40;99.90
18141;DHT22;9196;49.194;12.526;2023-05-24T02:48:59;13.40;99.90
18141;DHT22;9196;49.194;12.526;2023-05-24T02:51:27;13.40;99.90
18141;DHT22;9196;49.194;12.526;2023-05-24T02:53:54;13.40;99.90
18141;DHT22;9196;49.194;12.526;2023-05-24T02:56:21;13.40;99.90
18141;DHT22;9196;49.194;12.526;2023-05-24T02:58:47;13.40;99.90
18141;DHT22;9196;49.194;12.526;2023-05-24T03:01:14;13.40;99.90
18141;DHT22;9196;49.194;12.526;2023-05-24T03:03:41;13.40;99.90
18141;DHT22;9196;49.194;12.526;2023-05-24T03:06:08;13.30;99.90
18141;DHT22;9196;49.194;12.526;2023-05-24T03:08:36;13.30;99.90
18141;DHT22;9196;49.194;12.526;2023-05-24T03:11:03;13.20;99.90
18141;DHT22;9196;49.194;12.526;2023-05-24T03:13:29;13.30;99.90
18141;DHT22;9196;49.194;12.526;2023-05-24T03:15:56;13.30;99.90
18141;DHT22;9196;49.194;12.526;2023-05-24T03:18:23;13.40;99.90
18141;DHT22;9196;49.194;12.526;2023-05-24T03:20:50;13.40;99.90
18141;DHT22;9196;49.194;12.526;2023-05-24T03:23:17;13.40;99.90
18141;DHT22;9196;49.194;12.526;2023-05-24T03:25:45;13.50;99.90
18141;DHT22;9196;49.194;12.526;2023-05-24T03:28:12;13.50;99.90
18141;DHT22;9196;49.194;12.526;2023-05-24T03:30:40;13.50;99.90
18141;DHT22;9196;49.194;12.526;2023-05-24T03:33:07;13.40;99.90
18141;DHT22;9196;49.194;12.526;2023-05-24T03:35:33;13.40;99.90
18141;DHT22;9196;49.194;12.526;2023-05-24T03:38:00;13.40;99.90
18141;DHT22;9196;49.194;12.526;2023-05-24T03:40:27;13.50;99.90
18141;DHT22;9196;49.194;12.526;2023-05-24T03:42:58;13.50;99.90
18141;DHT22;9196;49.194;12.526;2023-05-24T03:45:25;13.50;99.90
18141;DHT22;9196;49.194;12.526;2023-05-24T03:47:51;13.40;99.90
18141;DHT22;9196;49.194;12.526;2023-05-24T03:50:18;13.40;99.90
18141;DHT22;9196;49.194;12.526;2023-05-24T03:52:45;13.40;99.90
18141;DHT22;9196;49.194;12.526;2023-05-24T03:55:12;13.40;99.90
18141;DHT22;9196;49.194;12.526;2023-05-24T03:57:40;13.40;99.90
18141;DHT22;9196;49.194;12.526;2023-05-24T04:00:10;13.50;99.90
18141;DHT22;9196;49.194;12.526;2023-05-24T04:02:37;13.40;99.90
18141;DHT22;9196;49.194;12.526;2023-05-24T04:05:04;13.40;99.90
18141;DHT22;9196;49.194;12.526;2023-05-24T04:07:34;13.50;99.90
18141;DHT22;9196;49.194;12.526;2023-05-24T04:10:01;13.50;99.90
18141;DHT22;9196;49.194;12.526;2023-05-24T04:12:29;13.30;99.90
18141;DHT22;9196;49.194;12.526;2023-05-24T04:14:55;13.30;99.90
18141;DHT22;9196;49.194;12.526;2023-05-24T04:17:24;13.30;99.90
18141;DHT22;9196;49.194;12.526;2023-05-24T04:19:51;13.30;99.90
18141;DHT22;9196;49.194;12.526;2023-05-24T04:22:18;13.30;99.90
18141;DHT22;9196;49.194;12.526;2023-05-24T04:24:45;13.40;99.90
18141;DHT22;9196;49.194;12.526;2023-05-24T04:27:12;13.40;99.90
18141;DHT22;9196;49.194;12.526;2023-05-24T04:29:38;13.40;99.90
18141;DHT22;9196;49.194;12.526;2023-05-24T04:32:06;13.30;99.90
18141;DHT22;9196;49.194;12.526;2023-05-24T04:34:36;13.30;99.90
18141;DHT22;9196;49.194;12.526;2023-05-24T04:37:07;13.30;99.90
18141;DHT22;9196;49.194;12.526;2023-05-24T04:39:34;13.30;99.90
18141;DHT22;9196;49.194;12.526;2023-05-24T04:42:00;13.30;99.90
18141;DHT22;9196;49.194;12.526;2023-05-24T04:44:27;13.40;99.90
18141;DHT22;9196;49.194;12.526;2023-05-24T04:46:54;13.40;99.90
18141;DHT22;9196;49.194;12.526;2023-05-24T04:49:22;13.50;99.90
18141;DHT22;9196;49.194;12.526;2023-05-24T04:51:50;13.40;99.90
18141;DHT22;9196;49.194;12.526;2023-05-24T04:54:17;13.40;99.90
18141;DHT22;9196;49.194;12.526;2023-05-24T04:56:43;13.50;99.90
18141;DHT22;9196;49.194;12.526;2023-05-24T04:59:10;13.50;99.90
18141;DHT22;9196;49.194;12.526;2023-05-24T05:01:38;13.50;99.90
18141;DHT22;9196;49.194;12.526;2023-05-24T05:04:05;13.60;99.90
18141;DHT22;9196;49.194;12.526;2023-05-24T05:06:32;13.60;99.90
18141;DHT22;9196;49.194;12.526;2023-05-24T05:09:04;13.60;99.90
18141;DHT22;9196;49.194;12.526;2023-05-24T05:11:33;13.60;99.90
18141;DHT22;9196;49.194;12.526;2023-05-24T05:14:00;13.70;99.90
18141;DHT22;9196;49.194;12.526;2023-05-24T05:16:27;13.70;99.90
18141;DHT22;9196;49.194;12.526;2023-05-24T05:18:54;13.60;99.90
18141;DHT22;9196;49.194;12.526;2023-05-24T05:21:20;13.60;99.90
18141;DHT22;9196;49.194;12.526;2023-05-24T05:23:47;13.50;99.90
18141;DHT22;9196;49.194;12.526;2023-05-24T05:26:15;13.60;99.90
18141;DHT22;9196;49.194;12.526;2023-05-24T05:28:42;13.70;99.90
18141;DHT22;9196;49.194;12.526;2023-05-24T05:31:09;13.80;99.90
18141;DHT22;9196;49.194;12.526;2023-05-24T05:33:36;13.90;99.90
18141;DHT22;9196;49.194;12.526;2023-05-24T05:36:03;13.90;99.90
18141;DHT22;9196;49.194;12.526;2023-05-24T05:38:29;14.00;99.90
18141;DHT22;9196;49.194;12.526;2023-05-24T05:40:56;13.90;99.90
18141;DHT22;9196;49.194;12.526;2023-05-24T05:43:24;13.80;99.90
18141;DHT22;9196;49.194;12.526;2023-05-24T05:45:51;13.80;99.90
18141;DHT22;9196;49.194;12.526;2023-05-24T05:48:18;14.00;99.90
18141;DHT22;9196;49.194;12.526;2023-05-24T05:50:44;14.10;99.90
18141;DHT22;9196;49.194;12.526;2023-05-24T05:53:11;14.20;99.90
18141;DHT22;9196;49.194;12.526;2023-05-24T05:55:38;14.30;99.90
18141;DHT22;9196;49.194;12.526;2023-05-24T05:58:05;14.30;99.90
18141;DHT22;9196;49.194;12.526;2023-05-24T06:00:33;14.40;99.90
18141;DHT22;9196;49.194;12.526;2023-05-24T06:03:00;14.50;99.90
18141;DHT22;9196;49.194;12.526;2023-05-24T06:05:27;14.50;99.90
18141;DHT22;9196;49.194;12.526;2023-05-24T06:07:54;14.40;99.90
18141;DHT22;9196;49.194;12.526;2023-05-24T06:10:20;14.50;99.90
18141;DHT22;9196;49.194;12.526;2023-05-24T06:12:47;14.50;99.90
18141;DHT22;9196;49.194;12.526;2023-05-24T06:15:14;14.60;99.90
18141;DHT22;9196;49.194;12.526;2023-05-24T06:17:42;14.60;99.90
18141;DHT22;9196;49.194;12.526;2023-05-24T06:20:12;14.50;99.90
18141;DHT22;9196;49.194;12.526;2023-05-24T06:22:40;14.50;99.90
18141;DHT22;9196;49.194;12.526;2023-05-24T06:25:07;14.50;99.90
18141;DHT22;9196;49.194;12.526;2023-05-24T06:27:34;14.60;99.90
18141;DHT22;9196;49.194;12.526;2023-05-24T06:30:01;14.60;99.90
18141;DHT22;9196;49.194;12.526;2023-05-24T06:32:28;14.50;99.90
18141;DHT22;9196;49.194;12.526;2023-05-24T06:34:56;14.50;99.90
18141;DHT22;9196;49.194;12.526;2023-05-24T06:37:23;14.50;99.90
18141;DHT22;9196;49.194;12.526;2023-05-24T06:39:50;14.40;99.90
18141;DHT22;9196;49.194;12.526;2023-05-24T06:42:17;14.40;99.90
18141;DHT22;9196;49.194;12.526;2023-05-24T06:44:44;14.50;99.90
18141;DHT22;9196;49.194;12.526;2023-05-24T06:47:10;14.50;99.90
18141;DHT22;9196;49.194;12.526;2023-05-24T06:49:37;14.60;99.90
18141;DHT22;9196;49.194;12.526;2023-05-24T06:52:05;14.40;99.90
18141;DHT22;9196;49.194;12.526;2023-05-24T06:54:33;14.30;99.90
18141;DHT22;9196;49.194;12.526;2023-05-24T06:57:00;14.20;99.90
18141;DHT22;9196;49.194;12.526;2023-05-24T06:59:28;14.30;99.90
18141;DHT22;9196;49.194;12.526;2023-05-24T07:01:55;14.30;99.90
18141;DHT22;9196;49.194;12.526;2023-05-24T07:04:22;14.30;99.90
18141;DHT22;9196;49.194;12.526;2023-05-24T07:06:50;14.40;99.90
18141;DHT22;9196;49.194;12.526;2023-05-24T07:09:18;14.50;99.90
18141;DHT22;9196;49.194;12.526;2023-05-24T07:11:45;14.50;99.90
18141;DHT22;9196;49.194;12.526;2023-05-24T07:14:12;14.50;99.90
18141;DHT22;9196;49.194;12.526;2023-05-24T07:16:39;14.50;99.90
18141;DHT22;9196;49.194;12.526;2023-05-24T07:19:05;14.50;99.90
18141;DHT22;9196;49.194;12.526;2023-05-24T07:21:32;14.60;99.90
18141;DHT22;9196;49.194;12.526;2023-05-24T07:23:59;14.70;99.90
18141;DHT22;9196;49.194;12.526;2023-05-24T07:26:27;14.80;99.90
18141;DHT22;9196;49.194;12.526;2023-05-24T07:28:54;14.90;99.90
18141;DHT22;9196;49.194;12.526;2023-05-24T07:31:21;14.90;99.60
18141;DHT22;9196;49.194;12.526;2023-05-24T07:33:48;14.90;99.80
18141;DHT22;9196;49.194;12.526;2023-05-24T07:36:15;14.90;99.70
18141;DHT22;9196;49.194;12.526;2023-05-24T07:38:42;14.90;99.90
18141;DHT22;9196;49.194;12.526;2023-05-24T07:41:08;14.90;99.90
18141;DHT22;9196;49.194;12.526;2023-05-24T07:43:37;15.00;99.90
18141;DHT22;9196;49.194;12.526;2023-05-24T07:46:04;15.00;99.80
18141;DHT22;9196;49.194;12.526;2023-05-24T07:48:31;14.90;99.90
18141;DHT22;9196;49.194;12.526;2023-05-24T07:50:58;14.90;99.90
18141;DHT22;9196;49.194;12.526;2023-05-24T07:53:25;15.00;99.90
18141;DHT22;9196;49.194;12.526;2023-05-24T07:55:52;15.10;99.90
18141;DHT22;9196;49.194;12.526;2023-05-24T07:58:19;15.10;99.90
18141;DHT22;9196;49.194;12.526;2023-05-24T08:00:47;15.00;99.90
18141;DHT22;9196;49.194;12.526;2023-05-24T08:03:14;15.00;99.90
18141;DHT22;9196;49.194;12.526;2023-05-24T08:05:42;15.10;99.90
18141;DHT22;9196;49.194;12.526;2023-05-24T08:08:08;15.10;99.90
18141;DHT22;9196;49.194;12.526;2023-05-24T08:10:35;15.00;99.90
18141;DHT22;9196;49.194;12.526;2023-05-24T08:13:02;15.00;99.90
18141;DHT22;9196;49.194;12.526;2023-05-24T08:15:30;15.10;99.90
18141;DHT22;9196;49.194;12.526;2023-05-24T08:17:58;15.10;99.90
18141;DHT22;9196;49.194;12.526;2023-05-24T08:20:25;15.20;99.90
18141;DHT22;9196;49.194;12.526;2023-05-24T08:22:52;15.10;99.90
18141;DHT22;9196;49.194;12.526;2023-05-24T08:25:18;15.10;99.90
18141;DHT22;9196;49.194;12.526;2023-05-24T08:27:45;15.00;99.90
18141;DHT22;9196;49.194;12.526;2023-05-24T08:30:13;15.10;99.90
18141;DHT22;9196;49.194;12.526;2023-05-24T08:32:39;15.10;99.90
18141;DHT22;9196;49.194;12.526;2023-05-24T08:35:08;15.20;99.90
18141;DHT22;9196;49.194;12.526;2023-05-24T08:37:35;15.10;99.90
18141;DHT22;9196;49.194;12.526;2023-05-24T08:40:01;14.90;99.90
18141;DHT22;9196;49.194;12.526;2023-05-24T08:42:29;15.00;99.90
18141;DHT22;9196;49.194;12.526;2023-05-24T08:45:02;14.90;99.90
18141;DHT22;9196;49.194;12.526;2023-05-24T08:47:29;14.90;99.90
18141;DHT22;9196;49.194;12.526;2023-05-24T08:49:57;14.80;99.90
18141;DHT22;9196;49.194;12.526;2023-05-24T08:52:26;14.60;99.90
18141;DHT22;9196;49.194;12.526;2023-05-24T08:54:54;14.50;99.90
18141;DHT22;9196;49.194;12.526;2023-05-24T08:57:21;14.50;99.90
18141;DHT22;9196;49.194;12.526;2023-05-24T08:59:48;14.60;99.90
18141;DHT22;9196;49.194;12.526;2023-05-24T09:02:15;14.60;99.90
18141;DHT22;9196;49.194;12.526;2023-05-24T09:04:43;14.60;99.90
18141;DHT22;9196;49.194;12.526;2023-05-24T09:07:11;14.60;99.90
18141;DHT22;9196;49.194;12.526;2023-05-24T09:09:42;14.50;99.90
18141;DHT22;9196;49.194;12.526;2023-05-24T09:12:14;14.50;99.90
18141;DHT22;9196;49.194;12.526;2023-05-24T09:14:44;14.60;99.90
18141;DHT22;9196;49.194;12.526;2023-05-24T09:17:11;14.50;99.90
18141;DHT22;9196;49.194;12.526;2023-05-24T09:19:42;14.50;99.90
18141;DHT22;9196;49.194;12.526;2023-05-24T09:22:09;14.50;99.90
18141;DHT22;9196;49.194;12.526;2023-05-24T09:24:41;14.30;99.90
18141;DHT22;9196;49.194;12.526;2023-05-24T09:27:08;14.30;99.90
18141;DHT22;9196;49.194;12.526;2023-05-24T09:29:35;14.30;99.90
18141;DHT22;9196;49.194;12.526;2023-05-24T09:32:02;14.10;99.90
18141;DHT22;9196;49.194;12.526;2023-05-24T09:34:37;14.20;99.90
18141;DHT22;9196;49.194;12.526;2023-05-24T09:37:04;14.10;99.90
18141;DHT22;9196;49.194;12.526;2023-05-24T09:39:32;14.10;99.90
18141;DHT22;9196;49.194;12.526;2023-05-24T09:42:02;14.20;99.90
18141;DHT22;9196;49.194;12.526;2023-05-24T09:44:29;14.30;99.90
18141;DHT22;9196;49.194;12.526;2023-05-24T09:47:01;14.30;99.90
18141;DHT22;9196;49.194;12.526;2023-05-24T09:49:29;14.40;99.90
18141;DHT22;9196;49.194;12.526;2023-05-24T09:51:56;14.60;99.90
18141;DHT22;9196;49.194;12.526;2023-05-24T09:54:23;14.80;99.90
18141;DHT22;9196;49.194;12.526;2023-05-24T09:56:51;14.90;99.90
18141;DHT22;9196;49.194;12.526;2023-05-24T09:59:19;14.90;99.90
18141;DHT22;9196;49.194;12.526;2023-05-24T10:01:46;15.00;99.90
18141;DHT22;9196;49.194;12.526;2023-05-24T10:04:18;15.10;99.90
18141;DHT22;9196;49.194;12.526;2023-05-24T10:06:45;15.20;99.90
18141;DHT22;9196;49.194;12.526;2023-05-24T10:09:13;15.20;99.90
18141;DHT22;9196;49.194;12.526;2023-05-24T10:11:40;15.30;99.90
18141;DHT22;9196;49.194;12.526;2023-05-24T10:14:08;15.30;99.90
18141;DHT22;9196;49.194;12.526;2023-05-24T10:16:37;15.30;99.90
18141;DHT22;9196;49.194;12.526;2023-05-24T10:19:04;15.50;99.90
18141;DHT22;9196;49.194;12.526;2023-05-24T10:21:34;15.60;99.90
18141;DHT22;9196;49.194;12.526;2023-05-24T10:24:02;15.60;99.90
18141;DHT22;9196;49.194;12.526;2023-05-24T10:26:32;15.70;99.90
18141;DHT22;9196;49.194;12.526;2023-05-24T10:29:05;15.90;99.90
18141;DHT22;9196;49.194;12.526;2023-05-24T10:31:37;15.90;99.90
18141;DHT22;9196;49.194;12.526;2023-05-24T10:34:05;15.80;99.90
18141;DHT22;9196;49.194;12.526;2023-05-24T10:36:33;15.70;99.90
18141;DHT22;9196;49.194;12.526;2023-05-24T10:39:01;15.70;99.90
18141;DHT22;9196;49.194;12.526;2023-05-24T10:41:37;15.70;99.90
18141;DHT22;9196;49.194;12.526;2023-05-24T10:44:09;15.80;99.90
18141;DHT22;9196;49.194;12.526;2023-05-24T10:49:30;15.80;99.90
18141;DHT22;9196;49.194;12.526;2023-05-24T10:52:01;15.60;99.90
18141;DHT22;9196;49.194;12.526;2023-05-24T10:54:28;15.60;99.90
18141;DHT22;9196;49.194;12.526;2023-05-24T10:56:54;15.60;99.90
18141;DHT22;9196;49.194;12.526;2023-05-24T10:59:32;15.70;99.90
18141;DHT22;9196;49.194;12.526;2023-05-24T11:02:02;15.60;99.90
18141;DHT22;9196;49.194;12.526;2023-05-24T11:04:32;15.50;99.90
18141;DHT22;9196;49.194;12.526;2023-05-24T11:07:03;15.50;99.90
18141;DHT22;9196;49.194;12.526;2023-05-24T11:09:31;15.40;99.90
18141;DHT22;9196;49.194;12.526;2023-05-24T11:12:00;15.60;99.90
18141;DHT22;9196;49.194;12.526;2023-05-24T11:14:29;15.80;99.90
18141;DHT22;9196;49.194;12.526;2023-05-24T11:16:57;15.90;99.90
18141;DHT22;9196;49.194;12.526;2023-05-24T11:19:30;15.90;99.90
18141;DHT22;9196;49.194;12.526;2023-05-24T11:22:00;16.00;99.90
18141;DHT22;9196;49.194;12.526;2023-05-24T11:24:27;16.00;99.90
18141;DHT22;9196;49.194;12.526;2023-05-24T11:26:55;16.00;99.90
18141;DHT22;9196;49.194;12.526;2023-05-24T11:29:22;16.30;99.90
18141;DHT22;9196;49.194;12.526;2023-05-24T11:31:50;16.50;99.30
18141;DHT22;9196;49.194;12.526;2023-05-24T11:34:17;16.40;99.20
18141;DHT22;9196;49.194;12.526;2023-05-24T11:36:44;16.40;99.30
18141;DHT22;9196;49.194;12.526;2023-05-24T11:39:13;16.50;99.00
18141;DHT22;9196;49.194;12.526;2023-05-24T11:41:40;16.80;98.80
18141;DHT22;9196;49.194;12.526;2023-05-24T11:44:08;16.70;98.90
18141;DHT22;9196;49.194;12.526;2023-05-24T11:46:36;16.80;99.90
18141;DHT22;9196;49.194;12.526;2023-05-24T11:49:04;16.80;99.50
18141;DHT22;9196;49.194;12.526;2023-05-24T11:51:33;17.00;99.60
18141;DHT22;9196;49.194;12.526;2023-05-24T11:54:00;17.20;97.90
18141;DHT22;9196;49.194;12.526;2023-05-24T11:56:29;17.30;96.70
18141;DHT22;9196;49.194;12.526;2023-05-24T11:59:07;17.20;96.40
18141;DHT22;9196;49.194;12.526;2023-05-24T12:01:34;17.20;96.70
18141;DHT22;9196;49.194;12.526;2023-05-24T12:04:04;17.20;97.20
18141;DHT22;9196;49.194;12.526;2023-05-24T12:06:36;17.30;96.70
18141;DHT22;9196;49.194;12.526;2023-05-24T12:09:04;17.20;96.90
18141;DHT22;9196;49.194;12.526;2023-05-24T12:11:39;17.10;95.30
18141;DHT22;9196;49.194;12.526;2023-05-24T12:14:07;17.10;95.60
18141;DHT22;9196;49.194;12.526;2023-05-24T12:16:37;17.10;95.10
18141;DHT22;9196;49.194;12.526;2023-05-24T12:19:04;17.10;95.20
18141;DHT22;9196;49.194;12.526;2023-05-24T12:21:31;17.40;95.30
18141;DHT22;9196;49.194;12.526;2023-05-24T12:24:10;17.70;93.60
18141;DHT22;9196;49.194;12.526;2023-05-24T12:26:41;17.80;93.90
18141;DHT22;9196;49.194;12.526;2023-05-24T12:29:09;17.80;92.70
18141;DHT22;9196;49.194;12.526;2023-05-24T12:31:38;17.80;93.10
18141;DHT22;9196;49.194;12.526;2023-05-24T12:34:06;17.90;93.80
18141;DHT22;9196;49.194;12.526;2023-05-24T12:36:33;17.90;93.40
18141;DHT22;9196;49.194;12.526;2023-05-24T12:39:14;17.90;92.20
18141;DHT22;9196;49.194;12.526;2023-05-24T12:41:43;18.00;91.80
18141;DHT22;9196;49.194;12.526;2023-05-24T12:44:10;18.10;92.30
18141;DHT22;9196;49.194;12.526;2023-05-24T12:46:37;18.40;92.30
18141;DHT22;9196;49.194;12.526;2023-05-24T12:49:04;18.40;93.00
18141;DHT22;9196;49.194;12.526;2023-05-24T12:51:31;18.60;92.40
18141;DHT22;9196;49.194;12.526;2023-05-24T12:53:58;18.60;91.10
18141;DHT22;9196;49.194;12.526;2023-05-24T12:56:26;18.60;91.50
18141;DHT22;9196;49.194;12.526;2023-05-24T12:58:54;18.60;91.30
18141;DHT22;9196;49.194;12.526;2023-05-24T13:01:21;18.60;90.70
18141;DHT22;9196;49.194;12.526;2023-05-24T13:03:48;18.60;89.50
18141;DHT22;9196;49.194;12.526;2023-05-24T13:06:15;18.70;88.70
18141;DHT22;9196;49.194;12.526;2023-05-24T13:08:42;19.00;89.40
18141;DHT22;9196;49.194;12.526;2023-05-24T13:11:09;19.40;85.60
18141;DHT22;9196;49.194;12.526;2023-05-24T13:13:36;19.30;84.80
18141;DHT22;9196;49.194;12.526;2023-05-24T13:16:04;19.30;87.60
18141;DHT22;9196;49.194;12.526;2023-05-24T13:18:33;19.40;87.80
18141;DHT22;9196;49.194;12.526;2023-05-24T13:21:00;19.60;86.80
18141;DHT22;9196;49.194;12.526;2023-05-24T13:23:28;19.80;82.00
18141;DHT22;9196;49.194;12.526;2023-05-24T13:25:55;19.70;80.90
18141;DHT22;9196;49.194;12.526;2023-05-24T13:28:22;19.80;79.10
18141;DHT22;9196;49.194;12.526;2023-05-24T13:30:48;19.70;80.90
18141;DHT22;9196;49.194;12.526;2023-05-24T13:33:16;19.90;80.50
18141;DHT22;9196;49.194;12.526;2023-05-24T13:35:43;20.10;79.60
18141;DHT22;9196;49.194;12.526;2023-05-24T13:38:10;20.20;79.60
18141;DHT22;9196;49.194;12.526;2023-05-24T13:40:38;20.10;79.50
18141;DHT22;9196;49.194;12.526;2023-05-24T13:43:05;20.30;79.00
18141;DHT22;9196;49.194;12.526;2023-05-24T13:45:32;20.30;80.90
18141;DHT22;9196;49.194;12.526;2023-05-24T13:47:59;20.50;83.10
18141;DHT22;9196;49.194;12.526;2023-05-24T13:50:29;20.60;79.90
18141;DHT22;9196;49.194;12.526;2023-05-24T13:52:57;20.50;81.90
18141;DHT22;9196;49.194;12.526;2023-05-24T13:55:24;20.70;82.50
18141;DHT22;9196;49.194;12.526;2023-05-24T13:57:52;21.00;83.90
18141;DHT22;9196;49.194;12.526;2023-05-24T14:00:20;20.90;80.60
18141;DHT22;9196;49.194;12.526;2023-05-24T14:02:47;20.90;81.00
18141;DHT22;9196;49.194;12.526;2023-05-24T14:05:14;21.00;80.90
18141;DHT22;9196;49.194;12.526;2023-05-24T14:07:42;21.10;78.90
18141;DHT22;9196;49.194;12.526;2023-05-24T14:10:10;20.90;81.00
18141;DHT22;9196;49.194;12.526;2023-05-24T14:12:37;20.70;80.90
18141;DHT22;9196;49.194;12.526;2023-05-24T14:15:05;20.90;82.30
18141;DHT22;9196;49.194;12.526;2023-05-24T14:17:32;20.90;82.40
18141;DHT22;9196;49.194;12.526;2023-05-24T14:19:59;20.90;80.90
18141;DHT22;9196;49.194;12.526;2023-05-24T14:22:26;21.00;82.30
18141;DHT22;9196;49.194;12.526;2023-05-24T14:24:55;21.00;79.90
18141;DHT22;9196;49.194;12.526;2023-05-24T14:27:22;21.20;80.00
18141;DHT22;9196;49.194;12.526;2023-05-24T14:29:48;21.40;78.70
18141;DHT22;9196;49.194;12.526;2023-05-24T14:32:16;21.50;77.30
18141;DHT22;9196;49.194;12.526;2023-05-24T14:34:42;21.40;77.10
18141;DHT22;9196;49.194;12.526;2023-05-24T14:37:09;21.50;75.60
18141;DHT22;9196;49.194;12.526;2023-05-24T14:39:36;21.60;75.40
18141;DHT22;9196;49.194;12.526;2023-05-24T14:42:04;21.70;74.90
18141;DHT22;9196;49.194;12.526;2023-05-24T14:44:31;21.50;75.90
18141;DHT22;9196;49.194;12.526;2023-05-24T14:46:58;21.60;77.10
18141;DHT22;9196;49.194;12.526;2023-05-24T14:49:25;21.70;75.60
18141;DHT22;9196;49.194;12.526;2023-05-24T14:51:52;21.40;76.50
18141;DHT22;9196;49.194;12.526;2023-05-24T14:54:19;21.50;75.60
18141;DHT22;9196;49.194;12.526;2023-05-24T14:56:46;21.40;76.70
18141;DHT22;9196;49.194;12.526;2023-05-24T14:59:14;21.60;76.20
18141;DHT22;9196;49.194;12.526;2023-05-24T15:01:41;21.50;73.50
18141;DHT22;9196;49.194;12.526;2023-05-24T15:04:08;21.60;74.70
18141;DHT22;9196;49.194;12.526;2023-05-24T15:06:35;21.70;74.60
18141;DHT22;9196;49.194;12.526;2023-05-24T15:09:02;21.60;73.40
18141;DHT22;9196;49.194;12.526;2023-05-24T15:11:28;21.70;74.30
18141;DHT22;9196;49.194;12.526;2023-05-24T15:13:55;21.70;76.50
18141;DHT22;9196;49.194;12.526;2023-05-24T15:16:25;21.70;76.10
18141;DHT22;9196;49.194;12.526;2023-05-24T15:18:52;21.50;75.80
18141;DHT22;9196;49.194;12.526;2023-05-24T15:21:19;21.50;78.10
18141;DHT22;9196;49.194;12.526;2023-05-24T15:23:46;21.60;75.90
18141;DHT22;9196;49.194;12.526;2023-05-24T15:26:13;21.70;75.70
18141;DHT22;9196;49.194;12.526;2023-05-24T15:28:52;21.80;73.10
18141;DHT22;9196;49.194;12.526;2023-05-24T15:31:19;21.90;72.90
18141;DHT22;9196;49.194;12.526;2023-05-24T15:33:47;21.80;73.30
18141;DHT22;9196;49.194;12.526;2023-05-24T15:36:14;21.70;70.60
18141;DHT22;9196;49.194;12.526;2023-05-24T15:38:41;21.50;74.80
18141;DHT22;9196;49.194;12.526;2023-05-24T15:41:08;21.60;77.70